Time;durP1;ratioP1;P1;durP2;ratioP2;P2;SDS_P1;SDS_P2;PMS_P1;PMS_P2;Temp;Humidity;BMP_temperature;BMP_pressure;BME280_temperature;BME280_humidity;BME280_pressure;Samples;Min_cycle;Max_cycle;Signal;HPM_P1;HPM_P2
2023/03/06 00:01:00;;;;;;;4.90;3.08;;;22.70;64.20;;;21.25;38.49;97768.09;5041465;28;20056;-65
2023/03/06 00:03:26;;;;;;;6.80;2.78;;;22.70;64.00;;;21.31;38.71;97774.88;5038738;28;20116;-65
2023/03/06 00:05:56;;;;;;;4.07;3.13;;;22.70;64.00;;;21.36;38.38;97769.03;5040586;28;20600;-65
2023/03/06 00:08:23;;;;;;;4.47;2.92;;;22.80;64.00;;;21.32;38.27;97761.88;5039305;28;20420;-66
2023/03/06 00:10:49;;;;;;;4.00;2.97;;;22.80;63.70;;;21.32;38.41;97759.13;5040976;28;20149;-65
2023/03/06 00:13:18;;;;;;;4.13;3.13;;;22.80;63.60;;;21.32;38.25;97756.34;5040284;28;20080;-65
2023/03/06 00:15:44;;;;;;;7.40;3.20;;;22.90;63.70;;;21.32;38.21;97756.34;5042825;28;20045;-66
2023/03/06 00:18:10;;;;;;;6.20;2.55;;;22.90;63.60;;;21.32;38.17;97757.19;5052590;28;20045;-68
2023/03/06 00:20:38;;;;;;;3.60;2.83;;;23.00;63.70;;;21.38;38.09;97752.13;5046770;28;20441;-65
2023/03/06 00:23:08;;;;;;;5.32;2.75;;;23.00;63.60;;;21.44;37.95;97756.19;5044981;28;20067;-65
2023/03/06 00:25:37;;;;;;;4.15;2.97;;;23.00;63.60;;;21.45;37.90;97749.53;5047309;28;20049;-65
2023/03/06 00:28:06;;;;;;;5.93;3.17;;;23.00;63.40;;;21.41;38.00;97754.97;5039770;28;20045;-65
2023/03/06 00:30:32;;;;;;;4.70;3.08;;;23.10;63.50;;;21.51;38.08;97758.25;5040610;28;20441;-65
2023/03/06 00:32:58;;;;;;;4.60;2.85;;;23.10;63.40;;;21.56;37.65;97749.66;5044013;28;20052;-65
2023/03/06 00:35:24;;;;;;;3.08;2.30;;;23.20;63.30;;;21.60;37.85;97754.06;5042242;28;20045;-65
2023/03/06 00:37:51;;;;;;;5.20;3.20;;;23.20;63.10;;;21.64;37.74;97754.13;5037739;28;20043;-65
2023/03/06 00:40:18;;;;;;;4.75;3.95;;;23.20;63.20;;;21.64;37.62;97746.63;5038172;28;20045;-65
2023/03/06 00:42:45;;;;;;;4.70;3.25;;;23.30;63.00;;;21.70;37.46;97749.84;5041797;28;20044;-65
2023/03/06 00:45:11;;;;;;;3.47;3.10;;;23.30;63.10;;;21.70;37.48;97749.84;5043129;28;20475;-65
2023/03/06 00:47:37;;;;;;;4.13;3.17;;;23.30;63.00;;;21.70;37.55;97749.84;5043366;28;20557;-65
2023/03/06 00:50:04;;;;;;;6.25;3.20;;;23.40;63.00;;;21.72;37.60;97750.28;5045110;28;20037;-65
2023/03/06 00:52:30;;;;;;;3.42;3.10;;;23.40;62.70;;;21.76;37.41;97753.91;5044169;28;20052;-65
2023/03/06 00:54:56;;;;;;;4.85;2.80;;;23.40;62.80;;;21.78;37.54;97754.31;5043775;28;20132;-65
2023/03/06 00:57:23;;;;;;;4.22;2.80;;;23.50;62.80;;;21.82;37.48;97741.34;5038720;28;20041;-65
2023/03/06 00:59:49;;;;;;;6.22;3.65;;;23.50;62.70;;;21.82;37.43;97744.13;5040572;28;20060;-65
2023/03/06 01:02:15;;;;;;;4.82;2.90;;;23.60;62.40;;;21.87;37.23;97743.78;5040225;28;20066;-65
2023/03/06 01:04:41;;;;;;;3.85;2.92;;;23.60;62.60;;;21.88;37.26;97742.63;5037877;28;20067;-65
2023/03/06 01:07:07;;;;;;;5.32;3.15;;;23.60;62.40;;;21.88;37.31;97739.09;5037674;28;20060;-65
2023/03/06 01:09:33;;;;;;;4.38;3.20;;;23.70;62.40;;;21.86;37.36;97739.44;5038146;28;20053;-65
2023/03/06 01:11:59;;;;;;;4.00;3.00;;;23.70;62.40;;;21.86;37.24;97747.72;5041247;28;20049;-65
2023/03/06 01:14:25;;;;;;;10.27;2.78;;;23.70;62.40;;;21.94;37.23;97745.84;5042081;28;20473;-65
2023/03/06 01:16:52;;;;;;;4.13;3.15;;;23.70;62.40;;;21.95;37.22;97741.91;5040293;28;20052;-65
2023/03/06 01:19:18;;;;;;;5.78;3.15;;;23.80;62.30;;;22.02;36.92;97747.53;5039376;28;20084;-65
2023/03/06 01:21:44;;;;;;;4.00;2.45;;;23.80;62.00;;;22.07;36.78;97749.19;5039344;28;20489;-65
2023/03/06 01:24:10;;;;;;;5.35;2.58;;;23.80;62.00;;;22.02;36.91;97750.28;5040061;28;20049;-65
2023/03/06 01:26:36;;;;;;;4.22;2.88;;;23.90;62.10;;;22.06;36.95;97750.34;5046605;28;20044;-65
2023/03/06 01:29:02;;;;;;;7.15;3.30;;;23.90;62.00;;;22.07;36.88;97747.19;5042605;28;20064;-65
2023/03/06 01:31:28;;;;;;;3.13;2.58;;;23.90;61.90;;;22.07;36.70;97741.69;5041517;28;20040;-65
2023/03/06 01:33:54;;;;;;;7.20;2.95;;;23.90;61.70;;;22.09;36.69;97749.59;5041092;28;20147;-65
2023/03/06 01:36:20;;;;;;;2.72;2.47;;;23.90;61.80;;;22.07;36.93;97746.41;5037412;28;20045;-65
2023/03/06 01:38:46;;;;;;;3.70;2.88;;;24.00;61.70;;;22.06;36.74;97739.31;5041073;28;20045;-65
2023/03/06 01:41:16;;;;;;;3.20;2.60;;;24.00;61.70;;;22.03;36.87;97740.03;5038354;28;20038;-65
2023/03/06 01:43:45;;;;;;;3.67;2.75;;;24.00;61.70;;;22.06;36.87;97742.06;5036469;28;20381;-65
2023/03/06 01:46:42;;;;;;;2.83;2.17;;;24.00;61.70;;;22.07;36.85;97752.72;5044776;28;20125;-66
2023/03/06 01:49:28;;;;;;;3.63;2.63;;;24.00;61.60;;;22.07;36.90;97757.47;5039538;28;20038;-65
2023/03/06 01:52:02;;;;;;;2.40;2.08;;;24.00;61.60;;;22.11;36.65;97761.06;5037452;28;20086;-65
2023/03/06 01:54:32;;;;;;;3.58;2.58;;;23.90;61.40;;;22.07;36.77;97744.44;5037139;28;20544;-65
2023/03/06 01:57:04;;;;;;;3.15;2.40;;;23.90;61.40;;;22.07;36.66;97746.41;5038810;28;20044;-65
2023/03/06 01:59:32;;;;;;;3.88;3.08;;;23.90;61.40;;;22.08;36.67;97745.22;5036839;28;20057;-65
2023/03/06 02:01:58;;;;;;;2.95;2.63;;;23.90;61.50;;;22.06;36.67;97742.88;5035643;28;20131;-65
2023/03/06 02:04:24;;;;;;;3.95;2.45;;;23.90;61.40;;;22.06;36.66;97742.06;5037206;28;20052;-65
2023/03/06 02:06:50;;;;;;;3.25;2.72;;;23.90;61.40;;;22.06;36.73;97740.09;5038749;28;20415;-65
2023/03/06 02:09:16;;;;;;;4.03;3.08;;;23.90;61.30;;;22.07;36.54;97741.69;5028387;28;20061;-65
2023/03/06 02:11:43;;;;;;;2.95;2.65;;;23.90;61.40;;;22.07;36.55;97738.13;5042894;28;20037;-66
2023/03/06 02:14:11;;;;;;;7.32;3.03;;;23.90;61.30;;;22.04;36.56;97730.59;5041820;28;20048;-65
2023/03/06 02:16:38;;;;;;;3.78;3.03;;;23.90;61.40;;;22.03;36.81;97734.50;5028239;28;20083;-65
2023/03/06 02:19:03;;;;;;;3.85;2.22;;;23.90;61.40;;;22.03;36.71;97729.00;5038343;28;20145;-65
2023/03/06 02:21:33;;;;;;;3.97;3.13;;;23.90;61.40;;;22.02;36.66;97733.72;5038651;28;20660;-65
2023/03/06 02:24:35;;;;;;;3.58;2.58;;;23.90;61.40;;;22.04;36.58;97731.38;5022934;28;20439;-65
2023/03/06 02:27:03;;;;;;;3.97;3.15;;;23.90;61.40;;;22.03;36.68;97723.47;5041120;28;20394;-65
2023/03/06 02:29:29;;;;;;;3.35;2.75;;;23.80;61.30;;;22.02;36.74;97714.41;5027240;28;20057;-65
2023/03/06 02:31:55;;;;;;;3.95;2.97;;;23.80;61.20;;;22.02;36.52;97717.16;5042341;28;20048;-65
2023/03/06 02:34:21;;;;;;;5.03;3.58;;;23.80;61.30;;;22.03;36.77;97721.53;5040815;28;20584;-65
2023/03/06 02:36:53;;;;;;;5.20;3.03;;;23.80;61.30;;;22.01;36.60;97726.63;5040999;28;20037;-65
2023/03/06 02:39:21;;;;;;;3.10;2.72;;;23.80;61.30;;;22.02;36.62;97728.22;5033642;28;20506;-65
2023/03/06 02:41:47;;;;;;;4.55;2.70;;;23.80;61.30;;;22.03;36.58;97710.47;5038126;28;20060;-65
2023/03/06 02:44:13;;;;;;;4.18;3.42;;;23.80;61.30;;;22.04;36.41;97717.59;5036994;28;20045;-65
2023/03/06 02:46:39;;;;;;;3.95;2.97;;;23.70;61.10;;;22.07;36.54;97713.28;5036853;28;20064;-65
2023/03/06 02:49:05;;;;;;;4.65;3.03;;;23.70;61.20;;;22.06;36.35;97712.50;5040158;28;20049;-65
2023/03/06 02:51:32;;;;;;;2.85;2.65;;;23.70;61.10;;;22.02;36.36;97716.38;5041735;28;20396;-65
2023/03/06 02:53:58;;;;;;;4.28;3.17;;;23.70;61.10;;;22.01;36.46;97714.78;5043362;28;20052;-65
2023/03/06 02:56:24;;;;;;;3.67;3.15;;;23.70;61.10;;;22.01;36.51;97714.78;5038809;28;20053;-65
2023/03/06 02:58:50;;;;;;;3.90;3.38;;;23.60;61.00;;;22.00;36.41;97718.72;5037903;28;20064;-65
2023/03/06 03:01:17;;;;;;;3.15;2.45;;;23.70;61.20;;;21.99;36.41;97711.59;5035981;28;20053;-65
2023/03/06 03:03:43;;;;;;;4.50;3.42;;;23.60;61.20;;;22.00;36.61;97710.41;5040510;28;20064;-65
2023/03/06 03:06:09;;;;;;;2.92;2.45;;;23.60;61.20;;;21.98;36.58;97707.25;5036945;28;20052;-65
2023/03/06 03:08:36;;;;;;;3.67;3.00;;;23.60;61.20;;;21.98;36.60;97712.75;5034613;28;20366;-65
2023/03/06 03:11:03;;;;;;;4.88;3.13;;;23.60;61.20;;;21.97;36.39;97705.66;5034079;28;20638;-65
2023/03/06 03:13:29;;;;;;;4.00;3.03;;;23.60;61.10;;;21.98;36.50;97705.28;5038505;28;20088;-65
2023/03/06 03:16:04;;;;;;;3.45;2.72;;;23.60;61.20;;;21.97;36.44;97700.13;5038570;28;20033;-65
2023/03/06 03:18:30;;;;;;;5.13;3.63;;;23.60;61.20;;;21.93;36.47;97696.53;5041563;28;20064;-65
2023/03/06 03:20:56;;;;;;;3.63;2.72;;;23.60;61.20;;;21.95;36.38;97699.72;5042154;28;20370;-65
2023/03/06 03:23:22;;;;;;;2.88;2.58;;;23.60;61.30;;;21.98;36.56;97696.19;5040166;28;20049;-65
2023/03/06 03:25:48;;;;;;;4.47;2.85;;;23.60;61.20;;;21.92;36.32;97701.25;5041258;28;20041;-65
2023/03/06 03:28:15;;;;;;;3.97;2.92;;;23.60;61.30;;;21.91;36.43;97701.66;5045264;28;20049;-65
2023/03/06 03:30:43;;;;;;;3.90;2.97;;;23.50;61.10;;;21.85;36.53;97701.16;5044687;28;20199;-65
2023/03/06 03:33:09;;;;;;;4.60;3.17;;;23.50;61.10;;;21.86;36.51;97705.53;5043711;28;20049;-65
2023/03/06 03:35:35;;;;;;;5.18;3.00;;;23.50;61.20;;;21.88;36.53;97698.47;5041603;28;20042;-66
2023/03/06 03:38:01;;;;;;;3.58;2.78;;;23.50;61.20;;;21.86;36.40;97703.56;5042383;28;20595;-65
2023/03/06 03:40:27;;;;;;;3.85;3.05;;;23.50;60.90;;;21.86;36.47;97698.03;5043248;28;20061;-65
2023/03/06 03:42:53;;;;;;;4.63;3.78;;;23.50;61.10;;;21.87;36.66;97694.09;5037898;28;20305;-65
2023/03/06 03:45:19;;;;;;;7.40;2.70;;;23.50;61.20;;;21.84;36.41;97694.84;5043121;28;20056;-65
2023/03/06 03:47:45;;;;;;;4.80;3.40;;;23.40;61.10;;;21.85;36.43;97690.94;5040826;28;20041;-66
2023/03/06 03:50:11;;;;;;;3.08;2.80;;;23.40;61.10;;;21.88;36.57;97683.88;5045920;28;20064;-66
2023/03/06 03:52:37;;;;;;;6.32;3.75;;;23.40;61.10;;;21.87;36.44;97685.03;5040325;28;20432;-65
2023/03/06 03:55:07;;;;;;;4.57;2.88;;;23.40;61.20;;;21.86;36.53;97667.69;5040689;28;20037;-65
2023/03/06 03:57:33;;;;;;;4.18;3.15;;;23.40;61.10;;;21.82;36.56;97669.59;5043697;28;20041;-66
2023/03/06 04:00:00;;;;;;;3.00;2.55;;;23.40;61.20;;;21.85;36.48;97662.50;5045166;28;20099;-66
2023/03/06 04:02:25;;;;;;;5.00;3.45;;;23.40;61.10;;;21.81;36.53;97673.53;5043538;28;20049;-65
2023/03/06 04:04:52;;;;;;;3.58;2.95;;;23.40;61.10;;;21.83;36.51;97670.38;5044955;28;20056;-66
2023/03/06 04:07:18;;;;;;;2.83;2.63;;;23.30;61.00;;;21.84;36.45;97670.00;5042714;28;20057;-66
2023/03/06 04:09:44;;;;;;;3.20;2.60;;;23.30;61.10;;;21.83;36.60;97671.19;5043132;28;20100;-65
2023/03/06 04:12:10;;;;;;;4.25;3.00;;;23.30;61.10;;;21.85;36.23;97668.03;5039763;28;20397;-65
2023/03/06 04:14:36;;;;;;;3.38;3.08;;;23.30;61.10;;;21.80;36.44;97671.91;5043755;28;20423;-65
2023/03/06 04:17:02;;;;;;;3.70;2.97;;;23.30;61.00;;;21.77;36.34;97667.16;5041134;28;20045;-65
2023/03/06 04:19:28;;;;;;;10.70;3.63;;;23.30;61.10;;;21.80;36.33;97671.13;5042071;28;20049;-65
2023/03/06 04:21:54;;;;;;;4.45;3.28;;;23.30;61.10;;;21.77;36.45;97669.91;5043159;28;20053;-66
2023/03/06 04:24:20;;;;;;;4.05;3.08;;;23.30;61.10;;;21.80;36.25;97663.63;5041857;28;20182;-66
2023/03/06 04:26:46;;;;;;;6.90;3.75;;;23.30;61.00;;;21.78;36.29;97656.91;5039959;28;20065;-66
2023/03/06 04:29:12;;;;;;;3.47;2.83;;;23.30;61.10;;;21.73;36.41;97660.81;5041429;28;20045;-66
2023/03/06 04:31:38;;;;;;;5.15;3.33;;;23.30;61.10;;;21.72;36.33;97653.69;5042288;28;20045;-65
2023/03/06 04:34:04;;;;;;;4.28;3.53;;;23.30;61.00;;;21.74;36.37;97656.88;5042710;28;20049;-65
2023/03/06 04:36:33;;;;;;;4.25;2.92;;;23.20;60.90;;;21.73;36.39;97655.28;5041472;28;20049;-65
2023/03/06 04:38:59;;;;;;;4.28;3.28;;;23.20;60.90;;;21.75;36.35;97654.91;5040444;28;20041;-66
2023/03/06 04:41:25;;;;;;;4.28;3.00;;;23.20;61.00;;;21.73;36.29;97660.00;5044876;28;20036;-65
2023/03/06 04:43:52;;;;;;;4.80;3.30;;;23.20;61.00;;;21.74;36.21;97656.09;5046004;28;20448;-68
2023/03/06 04:46:17;;;;;;;3.83;3.42;;;23.20;61.00;;;21.72;36.25;97659.22;5042077;28;20076;-65
2023/03/06 04:48:44;;;;;;;4.18;3.10;;;23.20;61.00;;;21.70;36.22;97663.50;5039477;28;20043;-65
2023/03/06 04:51:11;;;;;;;4.00;3.42;;;23.20;61.00;;;21.70;36.17;97661.53;5042745;28;20041;-66
2023/03/06 04:53:38;;;;;;;5.03;3.50;;;23.20;61.10;;;21.69;36.13;97654.44;5024667;28;20041;-65
2023/03/06 04:56:04;;;;;;;4.20;3.38;;;23.20;61.00;;;21.72;36.27;97652.91;5042143;28;20089;-66
2023/03/06 04:58:31;;;;;;;5.85;4.25;;;23.10;61.00;;;21.73;36.29;97655.28;5042622;28;20155;-66
2023/03/06 05:00:57;;;;;;;4.43;3.75;;;23.10;61.00;;;21.70;36.19;97656.03;5042270;28;20049;-66
2023/03/06 05:03:23;;;;;;;5.30;3.33;;;23.10;61.10;;;21.69;36.42;97662.72;5042209;28;20037;-66
2023/03/06 05:05:49;;;;;;;4.82;4.35;;;23.10;61.10;;;21.70;36.54;97652.47;5046368;28;20093;-66
2023/03/06 05:08:15;;;;;;;7.00;4.00;;;23.10;61.10;;;21.68;36.23;97653.66;5040917;28;20501;-66
2023/03/06 05:10:42;;;;;;;5.28;3.67;;;23.10;61.10;;;21.67;36.13;97656.78;5043224;28;20048;-66
2023/03/06 05:13:08;;;;;;;4.97;3.97;;;23.00;61.00;;;21.65;36.31;97656.34;5038170;28;20037;-66
2023/03/06 05:15:34;;;;;;;4.47;3.88;;;23.00;61.00;;;21.65;36.20;97654.41;5035821;28;20056;-66
2023/03/06 05:18:00;;;;;;;5.72;4.45;;;23.00;61.10;;;21.64;36.22;97652.81;5039091;28;20048;-66
2023/03/06 05:20:27;;;;;;;4.65;3.53;;;23.00;61.10;;;21.65;36.42;97650.84;5033843;28;20045;-66
2023/03/06 05:22:54;;;;;;;6.55;3.63;;;23.00;61.10;;;21.64;36.60;97657.53;5038450;28;20052;-66
2023/03/06 05:25:20;;;;;;;4.57;3.65;;;23.00;61.10;;;21.62;36.51;97652.38;5037019;28;20140;-66
2023/03/06 05:27:46;;;;;;;6.20;4.47;;;23.00;61.20;;;21.64;36.26;97655.56;5039992;28;20041;-66
2023/03/06 05:30:13;;;;;;;4.30;3.40;;;23.00;61.20;;;21.62;36.31;97657.09;5043832;28;20474;-65
2023/03/06 05:32:39;;;;;;;5.60;4.30;;;23.00;61.20;;;21.63;36.38;97656.75;5038648;28;20541;-66
2023/03/06 05:35:05;;;;;;;4.28;3.60;;;23.00;61.20;;;21.60;36.28;97651.97;5039220;28;20043;-66
2023/03/06 05:37:31;;;;;;;6.28;3.78;;;23.00;61.20;;;21.62;36.27;97652.38;5040596;28;20036;-66
2023/03/06 05:39:57;;;;;;;5.15;4.07;;;23.00;61.20;;;21.61;36.27;97647.25;5038042;28;20057;-66
2023/03/06 05:42:24;;;;;;;5.80;4.35;;;22.90;61.10;;;21.59;36.50;97644.06;5045331;28;20052;-65
2023/03/06 05:44:50;;;;;;;6.80;4.32;;;22.90;61.10;;;21.61;36.42;97658.28;5038028;28;20043;-65
2023/03/06 05:47:16;;;;;;;5.75;3.90;;;22.90;61.10;;;21.61;36.20;97648.03;5044540;28;20337;-65
2023/03/06 05:49:42;;;;;;;4.82;3.30;;;22.90;61.20;;;21.61;36.41;97642.53;5036248;28;20481;-65
2023/03/06 05:52:09;;;;;;;6.00;4.40;;;22.90;61.10;;;21.62;36.38;97646.06;5041436;28;20049;-66
2023/03/06 05:54:36;;;;;;;5.18;3.90;;;22.90;61.20;;;21.63;36.20;97642.94;5022278;28;20132;-66
2023/03/06 05:57:03;;;;;;;9.80;4.55;;;22.90;61.20;;;21.62;36.12;97643.31;5038555;28;20500;-66
2023/03/06 05:59:31;;;;;;;4.72;3.72;;;22.90;61.20;;;21.62;36.46;97646.06;5039279;28;20050;-66
2023/03/06 06:01:58;;;;;;;7.18;3.72;;;22.90;61.20;;;21.64;36.20;97649.25;5042451;28;20050;-66
2023/03/06 06:04:25;;;;;;;6.28;3.75;;;22.90;61.20;;;21.61;36.43;97658.28;5040135;28;20521;-66
2023/03/06 06:07:00;;;;;;;6.15;4.10;;;22.90;61.20;;;21.62;36.31;97649.63;5043569;28;20067;-66
2023/03/06 06:09:26;;;;;;;4.82;4.10;;;22.90;61.10;;;21.62;36.09;97659.88;5038655;28;20049;-66
2023/03/06 06:12:00;;;;;;;5.13;4.35;;;22.90;61.20;;;21.60;36.13;97648.41;5044316;28;20404;-66
2023/03/06 06:14:27;;;;;;;5.65;4.28;;;22.90;61.20;;;21.59;36.45;97652.34;5039982;28;20095;-65
2023/03/06 06:16:54;;;;;;;4.63;3.50;;;22.90;61.30;;;21.58;36.22;97648.00;5034217;28;20046;-66
2023/03/06 06:19:21;;;;;;;6.65;4.43;;;22.90;61.30;;;21.58;36.36;97648.00;5039845;28;20049;-65
2023/03/06 06:21:52;;;;;;;4.65;4.10;;;22.90;61.30;;;21.60;36.32;97640.13;5037868;28;20128;-65
2023/03/06 06:24:21;;;;;;;8.32;4.53;;;22.90;61.30;;;21.56;36.28;97644.81;5041411;28;20049;-65
2023/03/06 06:26:52;;;;;;;4.13;3.67;;;22.80;61.20;;;21.56;36.32;97655.84;5040477;28;20059;-65
2023/03/06 06:29:18;;;;;;;6.35;4.50;;;22.80;61.30;;;21.58;36.48;97653.53;5038633;28;20048;-65
2023/03/06 06:31:48;;;;;;;6.53;4.53;;;22.80;61.30;;;21.54;36.52;97647.16;5039102;28;20044;-66
2023/03/06 06:34:14;;;;;;;7.65;4.53;;;22.80;61.20;;;21.57;36.40;97647.19;5040586;28;20132;-65
2023/03/06 06:36:40;;;;;;;6.55;5.05;;;22.80;61.40;;;21.59;36.45;97644.06;5040080;28;20053;-65
2023/03/06 06:39:06;;;;;;;5.35;4.47;;;22.80;61.50;;;21.60;36.34;97640.94;5039311;28;20533;-65
2023/03/06 06:41:33;;;;;;;7.32;5.00;;;22.80;61.40;;;21.61;36.49;97642.53;5040190;28;20075;-65
2023/03/06 06:43:59;;;;;;;5.68;4.82;;;22.80;61.50;;;21.57;36.55;97638.13;5044898;28;20283;-66
2023/03/06 06:46:26;;;;;;;6.10;4.47;;;22.90;61.50;;;21.61;36.62;97644.50;5024254;28;20444;-67
2023/03/06 06:48:55;;;;;;;6.30;5.38;;;22.90;61.60;;;21.60;36.72;97640.13;5044705;28;20403;-66
2023/03/06 06:51:25;;;;;;;5.03;3.65;;;22.80;61.50;;;21.62;36.77;97641.34;5038766;28;20421;-66
2023/03/06 06:53:52;;;;;;;6.47;4.10;;;22.80;61.70;;;21.65;36.75;97637.84;5042183;28;20381;-66
2023/03/06 06:56:18;;;;;;;13.57;5.15;;;22.90;61.80;;;21.65;36.72;97640.63;5040918;28;20049;-66
2023/03/06 06:58:47;;;;;;;5.78;4.57;;;22.80;61.80;;;21.64;36.78;97640.97;5039267;28;20530;-66
2023/03/06 07:01:13;;;;;;;10.13;4.85;;;22.80;61.80;;;21.65;37.17;97634.28;5040680;28;20041;-66
2023/03/06 07:03:39;;;;;;;9.63;5.03;;;22.80;62.30;;;21.73;37.44;97635.97;5043364;28;20048;-66
2023/03/06 07:06:06;;;;;;;11.13;5.38;;;22.80;62.80;;;21.71;37.72;97646.59;5037670;28;20041;-66
2023/03/06 07:08:32;;;;;;;6.30;4.70;;;22.80;63.00;;;21.71;37.89;97634.75;5024973;28;20419;-66
2023/03/06 07:10:58;;;;;;;8.35;4.70;;;22.80;63.20;;;21.76;37.87;97645.47;5040482;28;20040;-66
2023/03/06 07:13:24;;;;;;;10.25;5.40;;;22.90;63.60;;;21.74;38.30;97642.28;5045622;28;20084;-66
2023/03/06 07:15:51;;;;;;;10.00;5.57;;;22.80;63.80;;;21.72;38.23;97645.41;5041610;28;20045;-66
2023/03/06 07:18:16;;;;;;;14.32;5.55;;;22.90;63.90;;;21.64;38.71;97640.97;5047424;28;20049;-66
2023/03/06 07:20:43;;;;;;;13.27;5.53;;;22.90;64.40;;;21.67;38.88;97642.97;5042634;28;20403;-66
2023/03/06 07:23:11;;;;;;;14.73;5.55;;;22.90;64.70;;;21.70;38.73;97644.97;5041537;28;20340;-66
2023/03/06 07:25:37;;;;;;;5.47;4.50;;;22.90;64.70;;;21.67;38.52;97651.25;5042336;28;20404;-66
2023/03/06 07:28:04;;;;;;;14.10;5.35;;;22.80;64.30;;;21.62;38.47;97652.38;5041078;28;20050;-66
2023/03/06 07:30:30;;;;;;;10.10;5.68;;;22.80;64.10;;;21.58;38.47;97653.53;5042855;28;20049;-66
2023/03/06 07:32:59;;;;;;;7.35;5.10;;;22.80;63.90;;;21.59;38.33;97647.63;5041889;28;20048;-66
2023/03/06 07:35:25;;;;;;;8.50;5.28;;;22.80;63.70;;;21.61;38.23;97653.56;5038520;28;20476;-66
2023/03/06 07:37:52;;;;;;;17.15;7.05;;;22.80;63.60;;;21.63;38.09;97648.47;5037698;28;20072;-66
2023/03/06 07:40:18;;;;;;;10.73;5.60;;;22.80;63.60;;;21.66;38.05;97655.19;5038935;28;20107;-66
2023/03/06 07:42:44;;;;;;;8.18;4.80;;;22.80;63.60;;;21.65;38.05;97653.59;5037420;28;20045;-66
2023/03/06 07:45:11;;;;;;;11.55;6.03;;;22.80;63.60;;;21.66;37.69;97660.72;5036895;28;20041;-66
2023/03/06 07:47:38;;;;;;;9.18;5.85;;;22.80;63.60;;;21.64;37.88;97650.03;5037654;28;20057;-66
2023/03/06 07:50:06;;;;;;;9.30;5.13;;;22.80;63.50;;;21.62;37.72;97657.09;5042966;28;20051;-66
2023/03/06 07:52:33;;;;;;;11.23;4.82;;;22.70;63.30;;;21.55;37.68;97646.78;5042372;28;20566;-66
2023/03/06 07:54:59;;;;;;;9.23;4.28;;;22.70;63.20;;;21.58;37.54;97665.34;5042522;28;20055;-66
2023/03/06 07:57:25;;;;;;;7.53;4.65;;;22.80;63.20;;;21.62;37.58;97665.38;5039558;28;20050;-66
2023/03/06 07:59:51;;;;;;;7.68;5.13;;;22.80;63.20;;;21.59;37.53;97660.63;5039675;28;20067;-66
2023/03/06 08:02:17;;;;;;;5.82;4.90;;;22.70;63.00;;;21.61;37.50;97658.28;5039478;28;20136;-66
2023/03/06 08:04:44;;;;;;;6.85;5.25;;;22.80;63.00;;;21.64;37.26;97657.53;5035534;28;20127;-66
2023/03/06 08:07:10;;;;;;;7.50;4.60;;;22.70;62.80;;;21.62;37.24;97657.09;5040373;28;20488;-66
2023/03/06 08:09:37;;;;;;;7.35;5.57;;;22.70;62.80;;;21.63;37.24;97650.44;5038752;28;20056;-66
2023/03/06 08:12:03;;;;;;;9.93;4.82;;;22.70;62.80;;;21.61;37.42;97647.25;5037261;28;20056;-66
2023/03/06 08:14:29;;;;;;;6.07;4.63;;;22.70;62.80;;;21.62;37.15;97649.63;5040477;28;20465;-66
2023/03/06 08:16:55;;;;;;;5.22;4.05;;;22.70;62.70;;;21.64;37.21;97647.28;5040686;28;20046;-66
2023/03/06 08:19:21;;;;;;;8.30;5.72;;;22.70;62.60;;;21.70;37.12;97644.97;5036396;28;20068;-66
2023/03/06 08:21:47;;;;;;;9.60;4.30;;;22.70;62.60;;;21.76;36.74;97643.50;5039732;28;20064;-66
2023/03/06 08:24:15;;;;;;;7.38;4.45;;;22.70;62.60;;;21.82;36.75;97638.44;5036588;28;20050;-66
2023/03/06 08:26:41;;;;;;;6.22;4.72;;;22.70;62.40;;;21.76;36.78;97637.97;5039537;28;20228;-66
2023/03/06 08:29:09;;;;;;;10.98;5.20;;;22.70;62.40;;;21.80;36.75;97646.28;5038283;28;20049;-66
2023/03/06 08:31:39;;;;;;;8.27;4.97;;;22.70;62.50;;;21.82;36.70;97647.50;5036370;28;20053;-66
2023/03/06 08:34:09;;;;;;;8.05;4.93;;;22.70;62.50;;;21.85;36.73;97649.53;5036350;28;20040;-66
2023/03/06 08:36:35;;;;;;;8.45;4.45;;;22.70;62.50;;;21.89;36.57;97655.88;5038299;28;20045;-66
2023/03/06 08:39:01;;;;;;;8.95;5.75;;;22.70;62.40;;;21.93;36.61;97649.59;5036366;28;20076;-66
2023/03/06 08:41:27;;;;;;;13.98;5.50;;;22.70;62.40;;;21.97;36.43;97653.19;5039513;28;20060;-66
2023/03/06 08:43:54;;;;;;;6.32;5.30;;;22.80;62.50;;;22.01;36.31;97654.84;5037854;28;20049;-66
2023/03/06 08:46:21;;;;;;;7.65;4.55;;;22.80;62.40;;;22.00;36.38;97655.19;5042419;28;20055;-66
2023/03/06 08:48:47;;;;;;;5.68;4.13;;;22.80;62.40;;;21.99;36.61;97650.88;5037816;28;20041;-66
2023/03/06 08:51:14;;;;;;;9.02;5.40;;;22.80;62.40;;;22.03;36.33;97646.97;5044254;28;20429;-66
2023/03/06 08:53:40;;;;;;;8.80;5.20;;;22.80;62.30;;;22.01;36.33;97652.06;5039003;28;20045;-66
2023/03/06 08:56:06;;;;;;;9.13;5.03;;;22.80;62.30;;;22.03;36.43;97652.50;5042041;28;20045;-66
2023/03/06 08:58:33;;;;;;;8.35;5.25;;;22.80;62.20;;;22.06;36.19;97654.50;5038162;28;20041;-66
2023/03/06 09:00:59;;;;;;;8.20;5.35;;;22.80;62.10;;;22.16;36.09;97661.31;5035310;28;20143;-66
2023/03/06 09:03:25;;;;;;;6.72;4.22;;;22.80;62.00;;;22.15;36.17;97659.72;5038353;28;20049;-66
2023/03/06 09:05:51;;;;;;;6.72;4.07;;;22.90;62.20;;;22.18;35.85;97658.94;5037713;28;20490;-66
2023/03/06 09:08:17;;;;;;;9.55;4.28;;;22.90;62.90;;;22.23;35.90;97658.63;5038203;28;20067;-66
2023/03/06 09:10:47;;;;;;;6.78;4.60;;;22.90;62.10;;;22.28;35.88;97663.81;5035395;28;20049;-66
2023/03/06 09:13:13;;;;;;;6.72;4.38;;;22.90;62.00;;;22.31;35.95;97660.31;5036348;28;20060;-66
2023/03/06 09:15:39;;;;;;;6.40;4.55;;;22.90;62.10;;;22.29;35.88;97662.66;5038096;28;20509;-66
2023/03/06 09:18:05;;;;;;;9.13;4.60;;;22.90;62.00;;;22.29;35.85;97668.19;5038173;28;20539;-66
2023/03/06 09:20:31;;;;;;;7.88;4.30;;;22.90;62.00;;;22.29;35.96;97659.91;5037947;28;20389;-66
2023/03/06 09:22:57;;;;;;;8.50;4.50;;;22.90;62.00;;;22.32;35.91;97659.13;5039021;28;20042;-66
2023/03/06 09:25:23;;;;;;;5.53;4.10;;;22.90;61.90;;;22.29;35.86;97659.91;5037037;28;20053;-66
2023/03/06 09:27:50;;;;;;;4.68;4.15;;;23.00;62.00;;;22.32;35.75;97648.09;5041894;28;20045;-66
2023/03/06 09:30:16;;;;;;;7.13;4.97;;;23.00;62.00;;;22.31;35.88;97663.09;5036227;28;20049;-66
2023/03/06 09:32:43;;;;;;;7.40;5.10;;;23.00;62.00;;;22.36;35.55;97648.09;5039438;28;20051;-66
2023/03/06 09:35:09;;;;;;;7.60;4.53;;;23.00;61.90;;;22.36;35.70;97647.31;5036961;28;20480;-66
2023/03/06 09:37:39;;;;;;;6.28;3.92;;;23.00;61.90;;;22.43;35.72;97652.91;5038559;28;20048;-66
2023/03/06 09:40:06;;;;;;;4.50;3.58;;;23.00;62.00;;;22.46;35.64;97643.88;5037492;28;20100;-66
2023/03/06 09:42:32;;;;;;;4.10;3.70;;;23.00;62.00;;;22.49;35.59;97640.34;5036348;28;20045;-66
2023/03/06 09:45:00;;;;;;;7.75;4.35;;;23.00;61.90;;;22.45;35.65;97636.75;5020033;28;20053;-66
2023/03/06 09:47:46;;;;;;;6.95;4.57;;;23.00;62.00;;;22.52;35.58;97645.13;5037977;28;20767;-66
2023/03/06 09:50:38;;;;;;;5.82;4.07;;;23.00;62.00;;;22.52;35.71;97639.59;5038764;28;20055;-66
2023/03/06 09:53:15;;;;;;;5.90;4.15;;;23.00;62.00;;;22.54;35.62;97642.75;5040655;28;20041;-66
2023/03/06 09:55:43;;;;;;;5.30;4.72;;;23.00;62.00;;;22.59;35.58;97645.16;5043398;28;20564;-66
2023/03/06 09:58:23;;;;;;;7.38;4.60;;;23.00;62.10;;;22.62;35.52;97636.13;5022105;28;20040;-66
2023/03/06 10:01:03;;;;;;;6.20;4.70;;;23.10;62.30;;;22.65;35.68;97635.38;5024909;28;20053;-66
2023/03/06 10:03:37;;;;;;;6.97;5.30;;;23.10;62.30;;;22.65;35.58;97632.59;5038880;28;20451;-65
2023/03/06 10:06:25;;;;;;;5.50;4.18;;;23.10;62.20;;;22.69;35.48;97627.88;5025850;28;20546;-66
2023/03/06 10:09:19;;;;;;;6.40;4.55;;;23.10;62.20;;;22.74;35.40;97619.25;5009700;28;20512;-66
2023/03/06 10:12:01;;;;;;;8.02;3.92;;;23.10;62.20;;;22.71;35.80;97620.00;5038401;28;20299;-66
2023/03/06 10:14:31;;;;;;;10.95;4.38;;;23.10;62.20;;;22.66;35.58;97614.81;5032515;28;20069;-65
2023/03/06 10:16:58;;;;;;;5.10;4.00;;;23.20;62.20;;;22.62;35.71;97611.25;5040856;28;20132;-65
2023/03/06 10:19:34;;;;;;;5.55;4.07;;;23.20;62.20;;;22.50;35.85;97608.78;5039873;28;20049;-65